ウランバートル の空港の天気 - METARとTAF

チンギスハーン国際空港 ( ZMUB / ULN ) - モンゴル ウランバートル
飛行場実況気象(Metar)
観測時間05/27 08:00 ULAT (05/27 00:00 UTC)
風向・風速不定 1m/s
視程10km以上
天気現象
なし
気温11℃
湿度54%
気圧1010hPa
METARZMUB 270000Z VRB01MPS CAVOK 11/02 Q1010 NOSIG RMK QFE651.0 51
過去の天気等 Google飛行場航空写真 Wunderground天気予報

過去48時間のMETAR

飛行場予報(TAF)
発表時間: 5/27 06:55 ULAT (5/26 22:55 UTC)
予報対象時間: 27日8時 ULAT ~ 28日14時 ULAT
風向・風速不定 2m/s
視程10km以上
少しの積乱雲 雲底高度 910m
全天の4割程度の雲 雲底高度 1010m
27日10時 ULAT ~ 27日12時 ULAT に徐々に
風向・風速西南西 8m/s 瞬間風速 13m/s
27日19時 ULAT ~ 27日21時 ULAT に徐々に
風向・風速不定 2m/s
少しの積乱雲 雲底高度 910m
全天の8割程度の雲 雲底高度 1010m
28日8時 ULAT ~ 28日10時 ULAT に徐々に
風向・風速北北西 7m/s
28日8時 ULAT ~ 28日14時 ULAT に 確率 40% で一時的に
風向・風速不定 8m/s
天気現象雷雨
全天の4割程度の積乱雲 雲底高度 820m
全天の8割程度の雲 雲底高度 910m
TAF COR ZMUB 262255Z 2700/2806 VRB02MPS 9999 FEW030CB SCT033 TX26/2707Z TN09/2722Z
BECMG 2702/2704 25008G13MPS
BECMG 2711/2713 VRB02MPS FEW030CB BKN033
BECMG 2800/2802 34007MPS
PROB40 TEMPO 2800/2806 VRB08MPS TSRA SCT027CB BKN030